createdAt,value
2022-12-16T00:00:17.031Z,88.0
2022-12-16T00:01:16.522Z,87.7
2022-12-16T00:02:17.148Z,88.1
2022-12-16T00:03:16.846Z,88.3
2022-12-16T00:04:17.353Z,88.2
2022-12-16T00:05:16.828Z,88.3
2022-12-16T00:06:17.353Z,88.7
2022-12-16T00:07:16.859Z,88.4
2022-12-16T00:08:17.393Z,88.1
2022-12-16T00:09:16.899Z,88.0
2022-12-16T00:10:17.445Z,88.3
2022-12-16T00:11:16.993Z,88.0
2022-12-16T00:12:16.812Z,87.8
2022-12-16T00:13:17.294Z,87.8
2022-12-16T00:14:16.781Z,87.7
2022-12-16T00:15:17.296Z,87.8
2022-12-16T00:16:16.937Z,87.9
2022-12-16T00:17:17.451Z,87.9
2022-12-16T00:18:16.933Z,87.9
2022-12-16T00:19:17.436Z,87.8
2022-12-16T00:20:16.901Z,87.9
2022-12-16T00:21:17.399Z,87.9
2022-12-16T00:22:16.596Z,88.0
2022-12-16T00:23:17.098Z,87.9
2022-12-16T00:24:16.615Z,88.1
2022-12-16T00:25:17.080Z,87.9
2022-12-16T00:26:16.555Z,87.8
2022-12-16T00:27:17.049Z,87.6
2022-12-16T00:28:16.594Z,87.4
2022-12-16T00:29:17.090Z,87.5
2022-12-16T00:30:16.578Z,87.7
2022-12-16T00:31:17.180Z,87.8
2022-12-16T00:32:16.878Z,87.8
2022-12-16T00:33:17.384Z,87.7
2022-12-16T00:34:16.850Z,87.5
2022-12-16T00:35:17.350Z,87.4
2022-12-16T00:36:16.829Z,87.5
2022-12-16T00:37:17.285Z,87.7
2022-12-16T00:38:16.757Z,87.8
2022-12-16T00:39:17.253Z,88.3
2022-12-16T00:40:16.745Z,87.9
2022-12-16T00:41:17.251Z,87.2
2022-12-16T00:42:16.659Z,87.3
2022-12-16T00:43:17.142Z,87.3
2022-12-16T00:44:16.628Z,87.3
2022-12-16T00:45:17.095Z,87.3
2022-12-16T00:46:16.673Z,87.0
2022-12-16T00:47:17.193Z,86.8
2022-12-16T00:48:16.710Z,87.0
2022-12-16T00:49:17.189Z,86.8
2022-12-16T00:50:16.705Z,86.8
2022-12-16T00:51:17.171Z,87.0
2022-12-16T00:52:16.908Z,87.1
2022-12-16T00:53:17.378Z,86.8
2022-12-16T00:54:16.882Z,86.8
2022-12-16T00:55:17.345Z,87.0
2022-12-16T00:56:16.817Z,87.1
2022-12-16T00:57:17.337Z,87.1
2022-12-16T00:58:16.818Z,86.9
2022-12-16T00:59:17.323Z,87.3
2022-12-16T01:00:16.863Z,87.1
2022-12-16T01:01:17.740Z,87.2
2022-12-16T01:02:17.005Z,87.2
2022-12-16T01:03:28.617Z,87.3
2022-12-16T01:04:17.155Z,87.4
2022-12-16T01:05:16.640Z,87.4
2022-12-16T01:06:17.121Z,87.6
2022-12-16T01:07:16.594Z,87.7
2022-12-16T01:08:17.114Z,87.5
2022-12-16T01:09:16.577Z,87.6
2022-12-16T01:10:17.059Z,87.7
2022-12-16T01:11:16.539Z,87.7
2022-12-16T01:12:16.913Z,88.0
2022-12-16T01:13:17.384Z,87.8
2022-12-16T01:14:16.890Z,87.9
2022-12-16T01:15:17.364Z,87.9
2022-12-16T01:16:16.966Z,88.1
2022-12-16T01:17:16.541Z,88.1
2022-12-16T01:18:17.050Z,88.0
2022-12-16T01:19:16.558Z,88.2
2022-12-16T01:20:17.056Z,88.1
2022-12-16T01:21:16.524Z,88.1
2022-12-16T01:22:17.174Z,88.3
2022-12-16T01:23:16.656Z,88.3
2022-12-16T01:24:17.153Z,88.5
2022-12-16T01:25:16.645Z,88.6
2022-12-16T01:26:17.116Z,88.7
2022-12-16T01:27:16.630Z,89.0
2022-12-16T01:28:17.090Z,89.0
2022-12-16T01:29:16.577Z,89.1
2022-12-16T01:30:17.046Z,89.2
2022-12-16T01:31:16.607Z,89.5
2022-12-16T01:32:17.180Z,89.7
2022-12-16T01:33:16.701Z,89.9
2022-12-16T01:34:17.175Z,90.0
2022-12-16T01:36:17.206Z,90.1
2022-12-16T01:37:16.727Z,90.2
2022-12-16T01:38:17.217Z,90.4
2022-12-16T01:39:16.712Z,90.5
2022-12-16T01:40:17.224Z,90.5
2022-12-16T01:41:16.696Z,90.7
2022-12-16T01:42:17.177Z,90.7
2022-12-16T01:43:16.684Z,90.7
2022-12-16T01:44:17.170Z,90.6
2022-12-16T01:45:16.709Z,90.8
2022-12-16T01:46:17.369Z,90.7
2022-12-16T01:47:16.862Z,91.1
2022-12-16T01:48:17.324Z,91.1
2022-12-16T01:49:16.788Z,91.0
2022-12-16T01:50:17.261Z,91.2
2022-12-16T01:51:16.761Z,91.2
2022-12-16T01:52:17.244Z,91.4
2022-12-16T01:53:16.762Z,91.5
2022-12-16T01:54:17.303Z,91.5
2022-12-16T01:55:16.775Z,91.5
2022-12-16T01:56:17.244Z,91.4
2022-12-16T01:57:16.697Z,91.5
2022-12-16T01:58:17.179Z,91.5
2022-12-16T01:59:16.655Z,91.6
2022-12-16T02:00:17.144Z,91.9
2022-12-16T02:01:16.853Z,92.0
2022-12-16T02:02:17.234Z,92.1
2022-12-16T02:03:16.958Z,92.3
2022-12-16T02:04:16.462Z,92.4
2022-12-16T02:05:16.956Z,92.7
2022-12-16T02:06:17.456Z,92.7
2022-12-16T02:07:16.929Z,92.9
2022-12-16T02:08:17.393Z,93.2
2022-12-16T02:09:16.865Z,93.2
2022-12-16T02:10:17.353Z,93.2
2022-12-16T02:11:16.846Z,93.4
2022-12-16T02:12:16.968Z,93.4
2022-12-16T02:13:17.478Z,93.6
2022-12-16T02:14:17.000Z,93.7
2022-12-16T02:15:16.499Z,93.8
2022-12-16T02:16:17.873Z,93.9
2022-12-16T02:17:17.582Z,93.9
2022-12-16T02:18:17.085Z,94.0
2022-12-16T02:19:16.574Z,94.0
2022-12-16T02:20:17.036Z,93.9
2022-12-16T02:21:16.514Z,94.0
2022-12-16T02:22:16.850Z,94.2
2022-12-16T02:23:17.347Z,94.3
2022-12-16T02:24:16.862Z,94.3
2022-12-16T02:25:17.353Z,94.4
2022-12-16T02:26:16.838Z,94.4
2022-12-16T02:27:17.337Z,94.5
2022-12-16T02:28:16.835Z,94.6
2022-12-16T02:29:17.341Z,94.7
2022-12-16T02:30:16.846Z,94.8
2022-12-16T02:31:17.584Z,94.7
2022-12-16T02:32:16.842Z,94.7
2022-12-16T02:33:17.321Z,94.8
2022-12-16T02:34:16.784Z,94.9
2022-12-16T02:35:17.271Z,94.9
2022-12-16T02:36:16.756Z,94.9
2022-12-16T02:37:17.228Z,95.0
2022-12-16T02:38:16.725Z,95.1
2022-12-16T02:39:17.201Z,95.1
2022-12-16T02:40:16.678Z,95.2
2022-12-16T02:41:17.157Z,95.3
2022-12-16T02:42:16.460Z,95.5
2022-12-16T02:43:16.925Z,95.4
2022-12-16T02:44:17.420Z,95.5
2022-12-16T02:45:16.878Z,95.6
2022-12-16T02:46:17.564Z,95.8
2022-12-16T02:47:17.090Z,95.9
2022-12-16T02:48:16.564Z,96.0
2022-12-16T02:49:17.038Z,96.1
2022-12-16T02:50:16.512Z,96.0
2022-12-16T02:51:16.988Z,96.1
2022-12-16T02:52:16.642Z,96.2
2022-12-16T02:53:17.146Z,96.2
2022-12-16T02:54:16.610Z,96.2
2022-12-16T02:55:17.099Z,96.2
2022-12-16T02:56:16.586Z,96.3
2022-12-16T02:57:17.047Z,96.3
2022-12-16T02:58:16.521Z,96.3
2022-12-16T02:59:17.026Z,96.3
2022-12-16T03:00:16.488Z,96.3
2022-12-16T03:01:17.078Z,96.2
2022-12-16T03:02:17.436Z,96.3
2022-12-16T03:03:17.190Z,96.4
2022-12-16T03:04:16.739Z,96.4
2022-12-16T03:05:17.201Z,96.4
2022-12-16T03:06:16.692Z,96.5
2022-12-16T03:07:17.214Z,96.5
2022-12-16T03:08:16.709Z,96.5
2022-12-16T03:09:17.196Z,96.4
2022-12-16T03:10:16.674Z,96.4
2022-12-16T03:11:17.123Z,96.5
2022-12-16T03:12:16.825Z,96.6
2022-12-16T03:13:17.319Z,96.7
2022-12-16T03:14:16.790Z,96.6
2022-12-16T03:15:17.265Z,96.6
2022-12-16T03:16:16.861Z,96.5
2022-12-16T03:17:17.387Z,96.4
2022-12-16T03:18:16.845Z,96.4
2022-12-16T03:19:17.324Z,96.5
2022-12-16T03:20:16.809Z,96.5
2022-12-16T03:21:17.302Z,96.6
2022-12-16T03:22:17.047Z,96.6
2022-12-16T03:23:16.521Z,96.6
2022-12-16T03:24:16.993Z,96.6
2022-12-16T03:25:16.490Z,96.6
2022-12-16T03:26:16.988Z,96.5
2022-12-16T03:27:16.470Z,96.5
2022-12-16T03:28:16.939Z,96.6
2022-12-16T03:29:17.424Z,96.6
2022-12-16T03:30:16.917Z,96.5
2022-12-16T03:31:17.659Z,96.6
2022-12-16T03:32:16.628Z,96.5
2022-12-16T03:33:17.161Z,96.6
2022-12-16T03:34:16.649Z,96.6
2022-12-16T03:35:17.127Z,96.5
2022-12-16T03:36:16.668Z,96.5
2022-12-16T03:37:17.124Z,96.4
2022-12-16T03:38:16.613Z,96.4
2022-12-16T03:39:17.088Z,96.5
2022-12-16T03:40:16.550Z,96.7
2022-12-16T03:41:17.033Z,96.8
2022-12-16T03:42:16.496Z,96.8
2022-12-16T03:43:17.003Z,96.7
2022-12-16T03:44:16.503Z,96.7
2022-12-16T03:45:17.017Z,96.8
2022-12-16T03:46:16.605Z,96.8
2022-12-16T03:47:23.991Z,96.8
2022-12-16T03:48:16.682Z,96.9
2022-12-16T03:49:17.161Z,97.1
2022-12-16T03:50:16.621Z,97.0
2022-12-16T03:51:17.085Z,97.0
2022-12-16T03:52:16.621Z,96.9
2022-12-16T03:53:17.077Z,96.9
2022-12-16T03:54:16.563Z,97.0
2022-12-16T03:55:17.060Z,97.0
2022-12-16T03:56:16.555Z,97.0
2022-12-16T03:57:17.051Z,97.1
2022-12-16T03:58:16.519Z,97.1
2022-12-16T03:59:17.023Z,97.2
2022-12-16T04:00:16.535Z,97.2
2022-12-16T04:01:17.123Z,97.2
2022-12-16T04:02:17.609Z,97.2
2022-12-16T04:03:17.572Z,97.1
2022-12-16T04:04:17.201Z,97.2
2022-12-16T04:05:16.685Z,97.1
2022-12-16T04:06:17.130Z,97.2
2022-12-16T04:07:16.596Z,97.2
2022-12-16T04:08:17.084Z,97.2
2022-12-16T04:09:16.567Z,97.2
2022-12-16T04:10:17.047Z,97.2
2022-12-16T04:11:16.583Z,97.2
2022-12-16T04:12:17.099Z,97.2
2022-12-16T04:13:16.595Z,97.3
2022-12-16T04:14:17.071Z,97.4
2022-12-16T04:15:16.550Z,97.4
2022-12-16T04:16:17.117Z,97.4
2022-12-16T04:17:16.615Z,97.5
2022-12-16T04:18:17.066Z,97.5
2022-12-16T04:19:16.532Z,97.5
2022-12-16T04:20:16.994Z,97.5
2022-12-16T04:21:16.448Z,97.5
2022-12-16T04:22:17.125Z,97.6
2022-12-16T04:23:16.604Z,97.7
2022-12-16T04:24:17.084Z,97.7
2022-12-16T04:25:16.566Z,97.7
2022-12-16T04:26:17.043Z,97.7
2022-12-16T04:27:16.535Z,97.6
2022-12-16T04:28:17.009Z,97.5
2022-12-16T04:29:16.454Z,97.6
2022-12-16T04:30:16.929Z,97.6
2022-12-16T04:31:17.598Z,97.6
2022-12-16T04:32:16.861Z,97.6
2022-12-16T04:33:17.326Z,97.5
2022-12-16T04:34:16.772Z,97.5
2022-12-16T04:35:17.253Z,97.5
2022-12-16T04:36:16.764Z,97.5
2022-12-16T04:37:17.253Z,97.6
2022-12-16T04:38:16.763Z,97.6
2022-12-16T04:39:17.227Z,97.6
2022-12-16T04:40:16.698Z,97.7
2022-12-16T04:41:17.262Z,97.7
2022-12-16T04:42:16.654Z,97.6
2022-12-16T04:43:17.165Z,97.6
2022-12-16T04:44:17.084Z,97.5
2022-12-16T04:45:16.639Z,97.5
2022-12-16T04:46:17.311Z,97.5
2022-12-16T04:47:16.836Z,97.5
2022-12-16T04:48:17.291Z,97.5
2022-12-16T04:49:16.770Z,97.6
2022-12-16T04:50:17.293Z,97.6
2022-12-16T04:51:16.776Z,97.5
2022-12-16T04:52:17.452Z,97.5
2022-12-16T04:53:16.936Z,97.6
2022-12-16T04:54:17.711Z,97.6
2022-12-16T04:55:17.208Z,97.6
2022-12-16T04:56:16.694Z,97.6
2022-12-16T04:57:17.157Z,97.6
2022-12-16T04:58:16.648Z,97.6
2022-12-16T04:59:17.122Z,97.6
2022-12-16T05:00:16.577Z,97.6
2022-12-16T05:01:17.129Z,97.6
2022-12-16T05:02:16.871Z,97.6
2022-12-16T05:03:16.613Z,97.6
2022-12-16T05:04:17.122Z,97.6
2022-12-16T05:05:16.616Z,97.6
2022-12-16T05:06:17.086Z,97.6
2022-12-16T05:07:16.568Z,97.7
2022-12-16T05:08:17.043Z,97.7
2022-12-16T05:09:16.513Z,97.7
2022-12-16T05:10:17.001Z,97.8
2022-12-16T05:11:16.453Z,97.7
2022-12-16T05:12:16.874Z,97.8
2022-12-16T05:13:17.335Z,97.8
2022-12-16T05:14:16.798Z,97.8
2022-12-16T05:15:17.264Z,97.8
2022-12-16T05:16:16.863Z,97.9
2022-12-16T05:17:17.361Z,97.9
2022-12-16T05:18:16.860Z,97.9
2022-12-16T05:19:17.405Z,97.9
2022-12-16T05:20:16.904Z,97.9
2022-12-16T05:21:17.389Z,97.9
2022-12-16T05:22:16.831Z,97.9
2022-12-16T05:23:17.308Z,97.9
2022-12-16T05:24:16.814Z,97.9
2022-12-16T05:25:17.307Z,97.9
2022-12-16T05:26:16.805Z,98.0
2022-12-16T05:27:17.285Z,98.0
2022-12-16T05:28:16.765Z,98.1
2022-12-16T05:29:17.226Z,98.1
2022-12-16T05:30:16.727Z,98.1
2022-12-16T05:31:17.385Z,98.1
2022-12-16T05:32:16.862Z,98.1
2022-12-16T05:33:17.352Z,98.2
2022-12-16T05:34:16.832Z,98.1
2022-12-16T05:35:17.330Z,98.1
2022-12-16T05:36:16.800Z,98.2
2022-12-16T05:37:17.266Z,98.1
2022-12-16T05:38:16.781Z,98.1
2022-12-16T05:39:17.247Z,98.1
2022-12-16T05:40:16.726Z,98.2
2022-12-16T05:41:17.205Z,98.2
2022-12-16T05:42:16.567Z,98.2
2022-12-16T05:43:17.399Z,98.2
2022-12-16T05:44:16.868Z,98.3
2022-12-16T05:45:17.386Z,98.3
2022-12-16T05:46:17.205Z,98.3
2022-12-16T05:47:16.894Z,98.5
2022-12-16T05:48:17.415Z,98.5
2022-12-16T05:49:16.879Z,98.5
2022-12-16T05:50:17.403Z,98.5
2022-12-16T05:51:16.912Z,98.5
2022-12-16T05:52:16.871Z,98.5
2022-12-16T05:53:17.344Z,98.5
2022-12-16T05:54:16.977Z,98.5
2022-12-16T05:55:16.589Z,98.5
2022-12-16T05:56:17.062Z,98.5
2022-12-16T05:57:16.527Z,98.5
2022-12-16T05:58:17.012Z,98.5
2022-12-16T05:59:16.500Z,98.5
2022-12-16T06:00:16.984Z,98.4
2022-12-16T06:01:16.483Z,98.5
2022-12-16T06:02:17.320Z,98.5
2022-12-16T06:03:17.159Z,98.4
2022-12-16T06:04:18.291Z,98.4
2022-12-16T06:05:16.780Z,98.5
2022-12-16T06:06:17.255Z,98.4
2022-12-16T06:07:16.749Z,98.5
2022-12-16T06:08:17.245Z,98.4
2022-12-16T06:09:16.714Z,98.4
2022-12-16T06:10:17.191Z,98.4
2022-12-16T06:11:16.651Z,98.4
2022-12-16T06:12:17.125Z,98.5
2022-12-16T06:13:16.630Z,98.4
2022-12-16T06:14:17.125Z,98.3
2022-12-16T06:15:16.623Z,98.3
2022-12-16T06:16:17.211Z,98.3
2022-12-16T06:17:16.727Z,98.3
2022-12-16T06:18:17.236Z,98.3
2022-12-16T06:19:16.761Z,98.3
2022-12-16T06:20:17.226Z,98.3
2022-12-16T06:21:16.697Z,98.4
2022-12-16T06:22:17.210Z,98.4
2022-12-16T06:23:24.061Z,98.4
2022-12-16T06:24:17.457Z,98.4
2022-12-16T06:25:16.939Z,98.4
2022-12-16T06:26:17.430Z,98.5
2022-12-16T06:27:16.906Z,98.4
2022-12-16T06:28:17.393Z,98.4
2022-12-16T06:29:16.877Z,98.4
2022-12-16T06:30:17.357Z,98.4
2022-12-16T06:31:16.951Z,98.4
2022-12-16T06:32:16.858Z,98.4
2022-12-16T06:33:17.316Z,98.4
2022-12-16T06:34:16.822Z,98.4
2022-12-16T06:35:17.303Z,98.4
2022-12-16T06:36:16.767Z,98.5
2022-12-16T06:37:17.445Z,98.5
2022-12-16T06:38:16.928Z,98.5
2022-12-16T06:39:17.432Z,98.4
2022-12-16T06:40:16.924Z,98.4
2022-12-16T06:41:17.412Z,98.4
2022-12-16T06:42:16.778Z,98.4
2022-12-16T06:43:17.257Z,98.3
2022-12-16T06:44:16.787Z,98.3
2022-12-16T06:45:17.261Z,98.3
2022-12-16T06:46:16.969Z,98.3
2022-12-16T06:47:16.487Z,98.3
2022-12-16T06:48:16.962Z,98.4
2022-12-16T06:49:17.485Z,98.3
2022-12-16T06:50:16.948Z,98.3
2022-12-16T06:51:17.437Z,98.4
2022-12-16T06:52:17.399Z,98.4
2022-12-16T06:53:16.921Z,98.4
2022-12-16T06:54:17.389Z,98.4
2022-12-16T06:55:16.916Z,98.4
2022-12-16T06:56:17.401Z,98.5
2022-12-16T06:57:16.888Z,98.5
2022-12-16T06:58:17.366Z,98.5
2022-12-16T06:59:16.838Z,98.5
2022-12-16T07:00:17.345Z,98.5
2022-12-16T07:01:16.999Z,98.5
2022-12-16T07:02:17.449Z,98.5
2022-12-16T07:03:17.066Z,98.6
2022-12-16T07:04:16.534Z,98.6
2022-12-16T07:05:17.101Z,98.5
2022-12-16T07:06:16.605Z,98.5
2022-12-16T07:07:17.097Z,98.6
2022-12-16T07:08:16.612Z,98.6
2022-12-16T07:09:17.110Z,98.6
2022-12-16T07:10:16.638Z,98.6
2022-12-16T07:11:17.773Z,98.6
2022-12-16T07:12:16.683Z,98.6
2022-12-16T07:13:17.137Z,98.5
2022-12-16T07:14:16.590Z,98.5
2022-12-16T07:15:17.073Z,98.5
2022-12-16T07:16:16.589Z,98.5
2022-12-16T07:17:18.016Z,98.5
2022-12-16T07:18:16.554Z,98.5
2022-12-16T07:19:17.079Z,98.5
2022-12-16T07:20:16.561Z,98.5
2022-12-16T07:21:17.050Z,98.5
2022-12-16T07:22:16.534Z,98.5
2022-12-16T07:23:20.197Z,98.4
2022-12-16T07:24:16.654Z,98.4
2022-12-16T07:25:17.112Z,98.3
2022-12-16T07:26:16.580Z,98.4
2022-12-16T07:27:17.042Z,98.4
2022-12-16T07:28:16.507Z,98.4
2022-12-16T07:29:17.021Z,98.4
2022-12-16T07:30:16.493Z,98.4
2022-12-16T07:31:17.106Z,98.4
2022-12-16T07:32:17.333Z,98.4
2022-12-16T07:33:16.827Z,98.4
2022-12-16T07:34:17.354Z,98.5
2022-12-16T07:35:16.832Z,98.5
2022-12-16T07:36:17.296Z,98.4
2022-12-16T07:37:16.765Z,98.4
2022-12-16T07:38:17.280Z,98.4
2022-12-16T07:39:16.740Z,98.4
2022-12-16T07:40:17.262Z,98.4
2022-12-16T07:41:16.745Z,98.4
2022-12-16T07:42:16.589Z,98.5
2022-12-16T07:43:17.049Z,98.5
2022-12-16T07:44:16.522Z,98.5
2022-12-16T07:45:17.053Z,98.5
2022-12-16T07:46:16.674Z,98.5
2022-12-16T07:47:17.211Z,98.5
2022-12-16T07:48:16.722Z,98.4
2022-12-16T07:49:17.213Z,98.3
2022-12-16T07:50:16.740Z,98.4
2022-12-16T07:51:17.204Z,98.4
2022-12-16T07:52:16.577Z,98.4
2022-12-16T07:53:17.141Z,98.4
2022-12-16T07:54:16.649Z,98.3
2022-12-16T07:55:17.135Z,98.4
2022-12-16T07:56:16.609Z,98.3
2022-12-16T07:57:17.075Z,98.2
2022-12-16T07:58:16.571Z,98.2
2022-12-16T07:59:17.061Z,98.2
2022-12-16T08:00:16.543Z,98.2
2022-12-16T08:01:17.178Z,98.1
2022-12-16T08:02:17.208Z,98.0
2022-12-16T08:03:16.969Z,98.0
2022-12-16T08:04:16.474Z,98.0
2022-12-16T08:05:16.961Z,98.0
2022-12-16T08:06:17.446Z,98.0
2022-12-16T08:07:16.921Z,98.0
2022-12-16T08:08:17.433Z,98.0
2022-12-16T08:09:16.910Z,98.0
2022-12-16T08:10:17.388Z,98.1
2022-12-16T08:11:16.883Z,97.8
2022-12-16T08:12:16.648Z,97.7
2022-12-16T08:13:25.981Z,97.7
2022-12-16T08:14:16.833Z,97.6
2022-12-16T08:15:17.360Z,97.5
2022-12-16T08:16:17.014Z,97.4
2022-12-16T08:17:16.652Z,97.5
2022-12-16T08:18:17.193Z,97.4
2022-12-16T08:19:16.684Z,97.4
2022-12-16T08:20:17.200Z,97.5
2022-12-16T08:21:16.674Z,97.6
2022-12-16T08:22:17.138Z,97.5
2022-12-16T08:23:16.636Z,97.5
2022-12-16T08:24:17.119Z,97.4
2022-12-16T08:25:16.605Z,97.3
2022-12-16T08:26:17.084Z,97.2
2022-12-16T08:27:16.553Z,97.1
2022-12-16T08:28:17.061Z,97.1
2022-12-16T08:29:43.504Z,97.1
2022-12-16T08:30:17.035Z,97.1
2022-12-16T08:31:16.626Z,97.1
2022-12-16T08:32:17.278Z,97.1
2022-12-16T08:33:19.999Z,97.0
2022-12-16T08:34:16.533Z,97.0
2022-12-16T08:35:16.989Z,96.9
2022-12-16T08:36:16.469Z,96.9
2022-12-16T08:37:16.941Z,96.9
2022-12-16T08:38:17.437Z,96.8
2022-12-16T08:39:16.917Z,96.8
2022-12-16T08:40:35.556Z,96.8
2022-12-16T08:41:17.260Z,96.8
2022-12-16T08:42:16.622Z,96.7
2022-12-16T08:43:17.082Z,96.7
2022-12-16T08:44:16.580Z,96.6
2022-12-16T08:45:17.082Z,96.7
2022-12-16T08:46:16.726Z,96.7
2022-12-16T08:47:17.235Z,96.7
2022-12-16T08:48:16.715Z,96.5
2022-12-16T08:49:17.735Z,96.5
2022-12-16T08:50:17.256Z,96.3
2022-12-16T08:51:16.739Z,96.2
2022-12-16T08:52:17.130Z,96.2
2022-12-16T08:53:16.631Z,96.2
2022-12-16T08:54:17.085Z,96.1
2022-12-16T08:55:16.583Z,96.0
2022-12-16T08:56:17.081Z,96.0
2022-12-16T08:57:16.571Z,95.7
2022-12-16T08:58:17.076Z,95.6
2022-12-16T08:59:16.547Z,95.5
2022-12-16T09:00:17.088Z,95.4
2022-12-16T09:01:16.727Z,95.4
2022-12-16T09:02:17.884Z,95.2
2022-12-16T09:03:17.371Z,95.0
2022-12-16T09:04:17.296Z,95.0
2022-12-16T09:05:16.809Z,95.0
2022-12-16T09:06:17.308Z,94.8
2022-12-16T09:07:16.796Z,94.7
2022-12-16T09:08:17.318Z,94.4
2022-12-16T09:09:16.799Z,94.4
2022-12-16T09:10:17.333Z,94.2
2022-12-16T09:11:16.819Z,94.1
2022-12-16T09:12:17.174Z,94.2
2022-12-16T09:13:16.653Z,94.2
2022-12-16T09:14:17.138Z,93.9
2022-12-16T09:15:16.622Z,93.8
2022-12-16T09:16:20.039Z,93.7
2022-12-16T09:17:16.625Z,93.8
2022-12-16T09:18:17.208Z,93.6
2022-12-16T09:19:16.684Z,93.7
2022-12-16T09:20:17.199Z,93.7
2022-12-16T09:21:16.693Z,93.6
2022-12-16T09:22:17.104Z,93.4
2022-12-16T09:23:16.593Z,93.6
2022-12-16T09:24:17.079Z,93.5
2022-12-16T09:25:16.540Z,93.3
2022-12-16T09:26:17.141Z,93.2
2022-12-16T09:27:16.686Z,93.1
2022-12-16T09:28:17.162Z,93.2
2022-12-16T09:29:16.641Z,93.1
2022-12-16T09:30:17.183Z,93.2
2022-12-16T09:31:16.789Z,92.8
2022-12-16T09:32:17.217Z,92.6
2022-12-16T09:33:16.711Z,92.4
2022-12-16T09:34:17.203Z,92.3
2022-12-16T09:35:16.697Z,92.4
2022-12-16T09:36:17.184Z,92.2
2022-12-16T09:37:16.668Z,92.0
2022-12-16T09:38:17.166Z,92.0
2022-12-16T09:39:16.622Z,91.6
2022-12-16T09:40:17.112Z,91.6
2022-12-16T09:41:16.585Z,91.4
2022-12-16T09:42:17.152Z,91.3
2022-12-16T09:43:16.671Z,91.4
2022-12-16T09:44:17.141Z,91.1
2022-12-16T09:45:16.673Z,90.6
2022-12-16T09:46:17.291Z,90.6
2022-12-16T09:47:16.808Z,90.5
2022-12-16T09:48:17.289Z,89.8
2022-12-16T09:49:16.751Z,89.8
2022-12-16T09:50:17.239Z,89.9
2022-12-16T09:51:16.722Z,89.9
2022-12-16T09:52:18.965Z,89.8
2022-12-16T09:53:16.543Z,89.7
2022-12-16T09:54:17.023Z,89.0
2022-12-16T09:55:16.511Z,89.0
2022-12-16T09:56:17.025Z,88.3
2022-12-16T09:57:16.505Z,88.3
2022-12-16T09:58:16.981Z,88.2
2022-12-16T09:59:16.476Z,88.0
2022-12-16T10:00:16.977Z,88.2
2022-12-16T10:01:16.609Z,88.3
2022-12-16T10:02:17.534Z,87.8
2022-12-16T10:03:17.610Z,87.7
2022-12-16T10:04:17.359Z,88.0
2022-12-16T10:05:16.898Z,87.4
2022-12-16T10:06:17.356Z,87.0
2022-12-16T10:07:16.875Z,87.2
2022-12-16T10:08:19.389Z,87.2
2022-12-16T10:09:16.987Z,87.4
2022-12-16T10:10:16.501Z,87.4
2022-12-16T10:11:17.003Z,87.2
2022-12-16T10:12:16.695Z,87.4
2022-12-16T10:13:17.170Z,88.0
2022-12-16T10:14:19.957Z,88.0
2022-12-16T10:15:16.475Z,87.8
2022-12-16T10:16:17.200Z,87.9
2022-12-16T10:17:16.730Z,88.4
2022-12-16T10:18:17.334Z,88.4
2022-12-16T10:19:16.865Z,88.5
2022-12-16T10:20:17.343Z,88.4
2022-12-16T10:21:16.805Z,88.6
2022-12-16T10:22:16.859Z,88.9
2022-12-16T10:23:17.355Z,88.7
2022-12-16T10:24:16.895Z,88.6
2022-12-16T10:25:25.114Z,88.9
2022-12-16T10:26:16.948Z,89.2
2022-12-16T10:27:17.460Z,89.3
2022-12-16T10:28:16.928Z,88.9
2022-12-16T10:29:17.407Z,89.2
2022-12-16T10:30:16.898Z,89.2
2022-12-16T10:31:17.527Z,89.3
2022-12-16T10:32:16.817Z,89.4
2022-12-16T10:33:16.530Z,89.1
2022-12-16T10:34:17.044Z,89.3
2022-12-16T10:35:16.551Z,89.5
2022-12-16T10:36:17.054Z,89.5
2022-12-16T10:37:21.378Z,89.6
2022-12-16T10:38:16.969Z,89.7
2022-12-16T10:39:16.440Z,89.5
2022-12-16T10:40:16.927Z,89.3
2022-12-16T10:41:17.405Z,89.1
2022-12-16T10:42:16.846Z,89.2
2022-12-16T10:43:22.765Z,88.6
2022-12-16T10:44:17.307Z,88.5
2022-12-16T10:45:16.777Z,88.6
2022-12-16T10:46:17.631Z,88.4
2022-12-16T10:47:17.190Z,88.7
2022-12-16T10:48:16.667Z,88.8
2022-12-16T10:49:17.276Z,88.4
2022-12-16T10:50:17.023Z,88.5
2022-12-16T10:51:16.594Z,88.5
2022-12-16T10:52:16.650Z,88.2
2022-12-16T10:53:17.164Z,88.5
2022-12-16T10:54:16.694Z,88.7
2022-12-16T10:55:17.185Z,88.6
2022-12-16T10:56:16.650Z,88.6
2022-12-16T10:57:17.112Z,88.6
2022-12-16T10:58:16.592Z,88.8
2022-12-16T10:59:17.079Z,88.9
2022-12-16T11:00:16.570Z,89.1
2022-12-16T11:01:17.201Z,88.9
2022-12-16T11:02:17.125Z,88.8
2022-12-16T11:03:17.175Z,88.8
2022-12-16T11:04:16.970Z,88.7
2022-12-16T11:05:16.503Z,88.5
2022-12-16T11:06:17.020Z,88.5
2022-12-16T11:07:16.487Z,88.3
2022-12-16T11:08:16.972Z,88.3
2022-12-16T11:09:17.459Z,88.4
2022-12-16T11:10:23.134Z,88.7
2022-12-16T11:11:16.765Z,88.3
2022-12-16T11:12:16.930Z,88.4
2022-12-16T11:13:17.431Z,88.4
2022-12-16T11:14:16.942Z,88.4
2022-12-16T11:15:29.764Z,88.3
2022-12-16T11:16:17.496Z,88.4
2022-12-16T11:17:17.000Z,88.2
2022-12-16T11:18:16.505Z,88.1
2022-12-16T11:19:17.015Z,88.2
2022-12-16T11:20:16.507Z,88.1
2022-12-16T11:21:17.437Z,88.2
2022-12-16T11:22:17.376Z,88.2
2022-12-16T11:23:16.863Z,88.2
2022-12-16T11:24:17.390Z,88.6
2022-12-16T11:25:16.895Z,88.4
2022-12-16T11:26:17.372Z,88.6
2022-12-16T11:27:16.873Z,88.6
2022-12-16T11:28:17.371Z,88.4
2022-12-16T11:29:16.900Z,88.5
2022-12-16T11:30:17.370Z,88.1
2022-12-16T11:31:16.979Z,88.3
2022-12-16T11:32:17.031Z,88.5
2022-12-16T11:33:16.515Z,88.7
2022-12-16T11:34:17.008Z,89.0
2022-12-16T11:35:16.502Z,88.8
2022-12-16T11:36:16.979Z,88.5
2022-12-16T11:37:21.474Z,88.7
2022-12-16T11:38:16.978Z,88.9
2022-12-16T11:39:16.437Z,88.9
2022-12-16T11:40:16.916Z,88.8
2022-12-16T11:41:17.380Z,88.7
2022-12-16T11:42:16.763Z,88.8
2022-12-16T11:43:17.545Z,88.8
2022-12-16T11:44:17.006Z,89.1
2022-12-16T11:45:16.495Z,88.8
2022-12-16T11:46:17.071Z,88.8
2022-12-16T11:47:16.631Z,89.1
2022-12-16T11:48:17.124Z,89.5
2022-12-16T11:49:25.153Z,89.1
2022-12-16T11:50:17.040Z,89.2
2022-12-16T11:51:16.552Z,89.2
2022-12-16T11:52:36.679Z,89.4
2022-12-16T11:53:16.702Z,89.2
2022-12-16T11:54:17.177Z,89.0
2022-12-16T11:55:16.785Z,89.0
2022-12-16T11:56:17.358Z,89.0
2022-12-16T11:57:16.883Z,89.0
2022-12-16T11:58:17.370Z,89.0
2022-12-16T11:59:16.878Z,89.3
2022-12-16T12:00:17.486Z,88.9
2022-12-16T12:01:16.965Z,88.7
2022-12-16T12:02:16.893Z,88.9
2022-12-16T12:03:17.760Z,88.7
2022-12-16T12:04:17.457Z,88.6
2022-12-16T12:05:16.962Z,88.5
2022-12-16T12:06:17.434Z,88.3
2022-12-16T12:07:16.916Z,88.3
2022-12-16T12:08:17.399Z,88.3
2022-12-16T12:09:17.048Z,88.3
2022-12-16T12:10:16.757Z,88.3
2022-12-16T12:11:17.299Z,88.5
2022-12-16T12:12:16.485Z,88.3
2022-12-16T12:13:16.976Z,88.3
2022-12-16T12:14:16.436Z,88.5
2022-12-16T12:15:16.920Z,88.4
2022-12-16T12:16:17.544Z,88.3
2022-12-16T12:17:17.047Z,88.3
2022-12-16T12:18:16.547Z,88.3
2022-12-16T12:19:17.025Z,88.3
2022-12-16T12:20:16.728Z,88.1
2022-12-16T12:21:17.343Z,88.1
2022-12-16T12:22:17.308Z,88.1
2022-12-16T12:23:16.806Z,88.3
2022-12-16T12:24:17.336Z,88.4
2022-12-16T12:25:16.829Z,88.4
2022-12-16T12:26:17.359Z,88.2
2022-12-16T12:27:16.838Z,88.4
2022-12-16T12:28:17.331Z,88.4
2022-12-16T12:29:16.836Z,88.3
2022-12-16T12:30:17.312Z,88.6
2022-12-16T12:31:16.921Z,88.5
2022-12-16T12:32:17.008Z,88.3
2022-12-16T12:33:16.479Z,88.3
2022-12-16T12:34:16.938Z,87.9
2022-12-16T12:35:17.424Z,88.2
2022-12-16T12:36:16.923Z,88.1
2022-12-16T12:37:17.429Z,87.7
2022-12-16T12:38:16.934Z,87.9
2022-12-16T12:39:17.477Z,87.9
2022-12-16T12:40:16.997Z,88.5
2022-12-16T12:41:16.498Z,88.4
2022-12-16T12:42:16.762Z,88.1
2022-12-16T12:43:17.260Z,88.2
2022-12-16T12:44:16.751Z,88.2
2022-12-16T12:45:17.218Z,88.0
2022-12-16T12:46:16.792Z,88.1
2022-12-16T12:47:17.437Z,88.1
2022-12-16T12:48:16.933Z,88.0
2022-12-16T12:49:17.433Z,87.7
2022-12-16T12:50:16.919Z,87.5
2022-12-16T12:51:17.438Z,87.7
2022-12-16T12:52:16.900Z,87.9
2022-12-16T12:53:17.377Z,88.0
2022-12-16T12:54:16.851Z,88.2
2022-12-16T12:55:17.375Z,87.8
2022-12-16T12:56:16.851Z,87.7
2022-12-16T12:57:17.321Z,87.9
2022-12-16T12:58:16.801Z,87.8
2022-12-16T12:59:17.270Z,87.9
2022-12-16T13:00:16.733Z,87.7
2022-12-16T13:01:17.381Z,87.2
2022-12-16T13:02:16.906Z,87.3
2022-12-16T13:03:17.702Z,87.3
2022-12-16T13:04:17.258Z,87.2
2022-12-16T13:05:24.680Z,87.2
2022-12-16T13:06:17.317Z,87.2
2022-12-16T13:07:16.809Z,87.2
2022-12-16T13:08:17.310Z,87.5
2022-12-16T13:09:16.804Z,87.4
2022-12-16T13:10:17.326Z,87.1
2022-12-16T13:11:16.793Z,86.9
2022-12-16T13:12:17.344Z,86.8
2022-12-16T13:13:16.819Z,86.8
2022-12-16T13:14:17.306Z,87.0
2022-12-16T13:15:16.807Z,87.1
2022-12-16T13:16:17.406Z,86.9
2022-12-16T13:17:25.743Z,87.3
2022-12-16T13:18:16.539Z,87.1
2022-12-16T13:19:17.050Z,87.1